Tiempo atmosférico en la estación meteorológica de Valderredible, Polientes, Cantabria (720 m.)



Fecha
DESCASC
Temp. máxima en grados centígrados (hora)
DESCASC
Temp. mínima en grados centígrados (hora)
DESCASC
Temp. media en grados centígrados
DESCASC
Racha de viento máxima en m/sg (hora)
DESCASC
Velocidad máxima media en intervalos de 10 minutos(hora)
DESCASC
Precipitaciones diarias en mm
DESCASC
Precipitaciones de 00:00 a 06:00 en mm
DESCASC
Precipitaciones de 06:00 a 12:00 en mm
DESCASC
Precipitaciones de 12:00 a 18:00 en mm
DESCASC
Precipitaciones de 18:00 a 24:00 en mm
DESCASC
10-11-2019 3.6 (00:00) 0.6 (00:00) 2.1 5.83 (17:40) 1.67 (15:10) 30.9 1.1 13.3 13.6 2.9
09-11-2019 10.3 (17:10) 3.4 (00:00) 6.9 9.44 (14:00) 5 (13:30) 18.3 1.3 2 0 15
08-11-2019 11.8 (15:50) 1.9 (00:00) 6.9 10 (15:20) 3.33 (15:20) 2 0.7 1.1 0.1 0.1
07-11-2019 11.7 (13:20) 1 (00:00) 6.3 11.11 (15:20) 5.56 (13:10) 4.5 4.4 0 0.1 0
06-11-2019 13.5 (14:40) 5.5 (00:00) 9.5 8.89 (22:00) 4.72 (22:00) 2.4 2.1 0.3 0 0
05-11-2019 11.3 (15:20) 5.5 (00:00) 8.4 8.89 (14:00) 5 (02:00) 9.2 0 2.7 5.2 1.3
04-11-2019 16.6 (14:40) 7.1 (00:00) 11.9 16.39 (13:40) 7.78 (13:40) 0.7 0 0.1 0.6 0
03-11-2019 16.6 (15:10) 5 (00:00) 10.8 18.33 (20:30) 7.5 (00:40) 1.4 1.4 0 0 0
02-11-2019 16.2 (12:50) 10.6 (00:00) 13.4 15.28 (23:30) 7.5 (21:10) 0.5 0 0 0 0.5
01-11-2019 19.4 (14:40) 13 (00:00) 16.2 10.56 (14:50) 5.28 (14:50) 1.8 0 0 1.8 0
31-10-2019 21 (14:40) 11.8 (02:40) 16.4 6.39 (23:50) 3.61 (23:50) 0.8 0.8 0 0 0
30-10-2019 16.7 (14:20) 5.6 (00:00) 11.2 7.78 (12:50) 4.44 (12:50) 0.4 0 0 0.4 0
29-10-2019 19.7 (14:40) 7 (00:00) 13.4 7.22 (14:50) 4.17 (15:20) 0 0 0 0 0
28-10-2019 22.6 (14:30) 9.3 (00:00) 16 10.28 (13:30) 5.83 (12:20) 0 0 0 0 0
27-10-2019 19.9 (16:30) 5.4 (00:00) 12.6 5.28 (13:20) 2.78 (14:40) 0 0 0 0 0
26-10-2019 21.8 (15:50) 3 (00:00) 12.4 8.06 (16:00) 4.72 (12:50) 0 0 0 0 0
25-10-2019 19 (17:10) 6.6 (00:00) 12.8 8.33 (12:10) 4.17 (12:10) 0 0 0 0 0
24-10-2019 13.7 (17:00) 5.4 (00:00) 9.5 7.78 (15:10) 4.17 (15:10) 15.7 15.7 0 0 0
23-10-2019 13.4 (16:40) 8.1 (00:00) 10.8 10.83 (06:50) 3.61 (06:50) 49.3 0.1 21.7 3.4 24.1
22-10-2019 10.4 (16:50) 3 (00:00) 6.7 7.78 (23:20) 2.5 (17:50) 2.4 0 0 0.1 2.3
21-10-2019 14.1 (17:20) 3.8 (00:00) 9 3.33 (13:20) 1.67 (13:20) 0 0 0 0 0
20-10-2019 9.8 (00:10) 4.1 (00:00) 7 4.17 (09:00) 1.67 (14:20) 22.1 8.6 6.2 6.5 0.8
19-10-2019 13.1 (15:40) 9.7 (00:00) 11.4 13.89 (20:40) 4.72 (20:40) 9 0 0.1 2.7 6.2
18-10-2019 17.4 (13:50) 10.8 (00:00) 14.1 8.61 (14:00) 4.44 (14:00) 0.1 0.1 0 0 0
17-10-2019 20.9 (16:30) 11.5 (00:00) 16.2 11.11 (15:20) 5.28 (14:20) 2.2 2.2 0 0 0
16-10-2019 15.5 (17:30) 10.5 (00:00) 13 11.67 (13:30) 6.39 (10:40) 0 0 0 0 0
15-10-2019 16.4 (16:30) 1.2 (00:00) 8.8 11.67 (22:10) 5.83 (17:30) 0 0 0 0 0
14-10-2019 17.1 (13:50) 7.8 (00:00) 12.5 16.39 (11:40) 7.78 (11:40) 1.7 0 1.4 0.3 0

Gráficas

Temp. máximas Temp. mínimas Temp. medias Precipitaciones Rachas de viento máximas Velocidades máximas media en intervalos de 10 minutos

Datos horarios

Fecha y hora oficial Temperatura (ºC) Velocidad del viento (km/h) Dirección del viento Racha (km/h) Dirección de racha Precipitación (mm) Presión (hPa) Tendencia (hPa) Humedad (%)
2019-11-12 23:00:00 7.7 5 Sudoeste 14 Sudoeste 0.2 -- -- 90
2019-11-12 22:00:00 7.8 11 Sudoeste 20 Sudoeste 0.5 -- -- 88
2019-11-12 21:00:00 8 12 Sudoeste 26 Sudoeste 0.2 -- -- 86
2019-11-12 20:00:00 7.3 8 Sudoeste 13 Sudoeste 0.3 -- -- 88
2019-11-12 19:00:00 7.5 5 Sudoeste 21 Sudoeste 0.3 -- -- 85
2019-11-12 18:00:00 8 12 Sudoeste 20 Sudoeste 0.1 -- -- 74
2019-11-12 17:00:00 8.9 11 Sudoeste 24 Sudoeste 0 -- -- 64
2019-11-12 16:00:00 10 10 Sudoeste 23 Sudoeste 0 -- -- 56
2019-11-12 15:00:00 10.9 8 Sudoeste 21 Sur 0 -- -- 55
2019-11-12 14:00:00 11 8 Sudoeste 18 Sudoeste 0 -- -- 56
2019-11-12 13:00:00 9.9 2 Sudoeste 11 Oeste 0 -- -- 67
2019-11-12 12:00:00 7 3 Sudoeste 7 Sudoeste 0 -- -- 84
2019-11-12 11:00:00 5.4 0 Calma 9 Sudoeste 0 -- -- 95
2019-11-12 10:00:00 3.6 0 Calma 5 Sudoeste 0 -- -- 95
2019-11-12 09:00:00 2.3 0 Calma 5 Sudoeste 0 -- -- 95
2019-11-12 08:00:00 1.5 0 Calma 4 Sudoeste 0 -- -- 95
2019-11-12 07:00:00 1.9 0 Calma 5 Noroeste 0 -- -- 95
2019-11-12 06:00:00 2.4 0 Calma 9 Oeste 0 -- -- 95
2019-11-12 05:00:00 2.7 3 Sudoeste 6 Sudoeste 0 -- -- 95
2019-11-12 04:00:00 2.7 0 Calma 9 Oeste 0 -- -- 95
2019-11-12 03:00:00 2.8 3 Oeste 8 Oeste 0 -- -- 95
2019-11-12 02:00:00 2.5 2 Sudoeste 5 Sudoeste 0 -- -- 95
2019-11-12 01:00:00 2 0 Calma 4 Sudoeste 0 -- -- 95
2019-11-12 00:00:00 1.6 0 Calma 5 Oeste 0 -- -- 95
2019-11-11 23:00:00 1.3 0 Calma 5 Norte 0 -- -- 94
2019-11-11 22:00:00 2.6 0 Calma 4 Sudoeste 0.1 -- -- 93
2019-11-11 21:00:00 4.7 0 Calma 16 Nordeste 0.1 -- -- 89
2019-11-11 20:00:00 5.3 5 Norte 17 Nordeste 0.6 -- -- 85
2019-11-11 19:00:00 5.8 0 Calma -- -- 0.8 -- -- 93
2019-11-11 18:00:00 6 0 Calma 9 Nordeste 0.5 -- -- 91
2019-11-11 17:00:00 6.3 4 Nordeste 19 Nordeste 1.4 -- -- 86
2019-11-11 16:00:00 7.1 0 Calma 17 Nordeste 1.4 -- -- 88
2019-11-11 15:00:00 7.4 2 Norte 22 Nordeste 0.5 -- -- 83
2019-11-11 14:00:00 7.9 6 Nordeste 34 Nordeste 0.3 -- -- 83
2019-11-11 13:00:00 8.8 4 Norte 21 Norte 0.3 -- -- 83
2019-11-11 12:00:00 7.9 0 Calma 18 Sudoeste 0.1 -- -- 91
2019-11-11 11:00:00 5.3 7 Sudoeste 18 Sudoeste 0.1 -- -- 95
2019-11-11 10:00:00 4 3 Sudoeste 9 Sudoeste 0.1 -- -- 95
2019-11-11 09:00:00 3 0 Calma 7 Sudoeste 0 -- -- 95
2019-11-11 08:00:00 2.4 0 Calma -- -- 0 -- -- 95
2019-11-11 07:00:00 2.2 0 Calma -- -- 0 -- -- 95
2019-11-11 06:00:00 2 0 Calma 2 Sudoeste 0 -- -- 95
2019-11-11 05:00:00 1.9 0 Calma 5 Sudoeste 0 -- -- 95
2019-11-11 04:00:00 1.7 2 Sudoeste 7 Sudoeste 0 -- -- 95
2019-11-11 03:00:00 1.4 0 Calma 5 Sudoeste 0 -- -- 95
2019-11-11 02:00:00 1.1 0 Calma 6 Oeste 0 -- -- 95
2019-11-11 01:00:00 1.1 0 Calma 6 Oeste 0 -- -- 95
2019-11-11 00:00:00 1.7 0 Calma 4 Sudeste 0 -- -- 95
2019-11-10 23:00:00 2 0 Calma 5 Oeste 0.8 -- -- 95
2019-11-10 22:00:00 1.8 0 Calma 7 Sur 0.3 -- -- 95
2019-11-10 21:00:00 1.5 4 Sudoeste 9 Oeste 0.5 -- -- 95
2019-11-10 20:00:00 1.4 0 Calma 13 Oeste 0.8 -- -- 95
2019-11-10 19:00:00 1.5 3 Sudoeste 12 Sudoeste 0.5 -- -- 95
2019-11-10 18:00:00 1.6 4 Oeste 21 Norte 0.9 -- -- 95
2019-11-10 17:00:00 1.3 0 Calma 4 Nordeste 1.7 -- -- 95
2019-11-10 16:00:00 0.7 0 Calma 11 Sudoeste 3.9 -- -- 95
2019-11-10 15:00:00 1.1 3 Sudoeste 6 Oeste 1.1 -- -- 95
2019-11-10 14:00:00 0.9 0 Calma 5 Sudoeste 2 -- -- 96
2019-11-10 13:00:00 0.8 0 Calma 11 Nordeste 4 -- -- 96
2019-11-10 12:00:00 0.9 0 Calma 9 Sudoeste 2.9 -- -- 95
2019-11-10 11:00:00 0.7 0 Calma 8 Oeste 3.8 -- -- 95
2019-11-10 10:00:00 0.8 0 Calma 10 Sudeste 3.6 -- -- 95
2019-11-10 09:00:00 1.2 3 Sudeste 10 Sudeste 2.7 -- -- 95
2019-11-10 08:00:00 2 0 Calma 6 Sudoeste 0.2 -- -- 95
2019-11-10 07:00:00 2.2 3 Oeste 6 Este 0.1 -- -- 95
2019-11-10 06:00:00 1.9 0 Calma 7 Sudoeste 0.2 -- -- 95
2019-11-10 05:00:00 1.4 0 Calma 5 Sudoeste 0 -- -- 95
2019-11-10 04:00:00 1.7 2 Nordeste 6 Sudoeste 0 -- -- 95
2019-11-10 03:00:00 2.4 0 Calma 11 Nordeste 0 -- -- 95
2019-11-10 02:00:00 2.5 0 Calma 12 Nordeste 0.4 -- -- 95
2019-11-10 01:00:00 2.5 0 Calma 9 Sur 0.5 -- -- 93
2019-11-10 00:00:00 3.6 3 Sudoeste 12 Oeste 1.8 -- -- 92
2019-11-09 23:00:00 3.8 3 Nordeste 17 Oeste 3.3 -- -- 90
2019-11-09 22:00:00 4.4 3 Este 19 Noroeste 8.1 -- -- 91
2019-11-09 21:00:00 6 4 Norte 19 Norte 1.8 -- -- 84
2019-11-09 20:00:00 7.7 7 Nordeste 15 Nordeste 0 -- -- 87
2019-11-09 19:00:00 6.9 0 Calma 9 Sudoeste 0 -- -- 84
2019-11-09 18:00:00 8.8 2 Oeste 15 Oeste 0 -- -- 71
2019-11-09 17:00:00 10 5 Sudoeste 14 Sudoeste 0 -- -- 69
2019-11-09 16:00:00 9.1 9 Sudoeste 21 Sudoeste 0 -- -- 67
2019-11-09 15:00:00 9.1 14 Sudoeste 31 Sudoeste 0 -- -- 70
2019-11-09 14:00:00 7.8 18 Sudoeste 34 Sudoeste 0 -- -- 75
2019-11-09 13:00:00 7 16 Sudoeste 31 Sudoeste 0 -- -- 77
2019-11-09 12:00:00 6.5 17 Sudoeste 33 Sudoeste 0 -- -- 79
2019-11-09 11:00:00 5.4 15 Sudoeste 31 Sudoeste 0.2 -- -- 85
2019-11-09 10:00:00 4.8 8 Sudoeste 19 Sudoeste 1.8 -- -- 89
2019-11-09 09:00:00 4.5 4 Sudoeste 9 Sudoeste 0 -- -- 94
2019-11-09 08:00:00 4.2 0 Calma 5 Sudoeste 0 -- -- 94
2019-11-09 07:00:00 4.2 0 Calma -- -- 0 -- -- 94
2019-11-09 06:00:00 4.3 0 Calma 4 Sudoeste 0 -- -- 94
2019-11-09 05:00:00 4.4 3 Sudoeste 6 Sudoeste 0 -- -- 94
2019-11-09 04:00:00 4.4 0 Calma 5 Sudoeste 0.1 -- -- 92
2019-11-09 03:00:00 4.5 0 Calma 6 Sudoeste 0.5 -- -- 92
2019-11-09 02:00:00 4.5 2 Sudoeste 6 Sudoeste 0.5 -- -- 92
2019-11-09 01:00:00 4.8 0 Calma 10 Sudoeste 0.2 -- -- 89
2019-11-09 00:00:00 5 2 Sudoeste 8 Sudoeste 0.1 -- -- 86
2019-11-08 23:00:00 5.6 4 Sudoeste 12 Sudoeste 0 -- -- 75
2019-11-08 22:00:00 7 4 Oeste 34 Sudoeste 0 -- -- 61
2019-11-08 21:00:00 6.8 3 Oeste 26 Oeste 0 -- -- 60
2019-11-08 20:00:00 6.5 5 Oeste 28 Sudoeste 0 -- -- 56
2019-11-08 19:00:00 6.3 0 Calma 21 Noroeste 0 -- -- 57
2019-11-08 18:00:00 7.1 0 Calma 25 Norte 0 -- -- 52
2019-11-08 17:00:00 8.7 4 Norte 26 Oeste 0 -- -- 49
2019-11-08 16:00:00 11.3 7 Oeste 36 Oeste 0 -- -- 42
2019-11-08 15:00:00 10.5 5 Oeste 35 Oeste 0 -- -- 43
2019-11-08 14:00:00 8.4 3 Noroeste 21 Oeste 0 -- -- 59
2019-11-08 13:00:00 7.5 0 Calma 31 Noroeste 0.1 -- -- 66
2019-11-08 12:00:00 6.6 6 Sudoeste 19 Sudoeste 0.2 -- -- 75
2019-11-08 11:00:00 5.4 9 Sudoeste 19 Sudoeste 0 -- -- 84
2019-11-08 10:00:00 4.1 2 Sudoeste 9 Sur 0.3 -- -- 92
2019-11-08 09:00:00 3.1 4 Sur 17 Sudoeste 0.3 -- -- 92
2019-11-08 08:00:00 2.7 8 Sudoeste 18 Sudoeste 0.2 -- -- 91
2019-11-08 07:00:00 2.2 0 Calma 6 Sudoeste 0.1 -- -- 93
2019-11-08 06:00:00 2.2 0 Calma 9 Sudoeste 0.4 -- -- 92
2019-11-08 05:00:00 2.3 2 Sur 9 Sur 0.1 -- -- 88
2019-11-08 04:00:00 2.5 5 Sudoeste 15 Sudoeste 0.2 -- -- 85
2019-11-08 03:00:00 3 4 Sudoeste 16 Sudoeste 0 -- -- 80
2019-11-08 02:00:00 3.5 6 Sudoeste 18 Oeste 0 -- -- 68
2019-11-08 01:00:00 3.3 6 Sudoeste 13 Sudoeste 0 -- -- 71
2019-11-08 00:00:00 3.2 4 Sudoeste 14 Sudoeste 0 -- -- 72
2019-11-07 23:00:00 3.2 6 Sudoeste 14 Sudoeste 0 -- -- 73
2019-11-07 22:00:00 2.1 2 Sudoeste 8 Sur 0 -- -- 84
2019-11-07 21:00:00 1.4 0 Calma 3 Noroeste 0 -- -- 88
2019-11-07 20:00:00 2.7 0 Calma 5 Noroeste 0 -- -- 82
2019-11-07 19:00:00 4.5 0 Calma 13 Sudoeste 0 -- -- 69
2019-11-07 18:00:00 7.2 8 Oeste 31 Sudoeste 0 -- -- 43
2019-11-07 17:00:00 8.2 10 Sudoeste 30 Sudoeste 0 -- -- 48
2019-11-07 16:00:00 9.6 14 Sudoeste 40 Sudoeste 0.1 -- -- 51
2019-11-07 15:00:00 8.3 5 Oeste 31 Sudoeste 0 -- -- 58
2019-11-07 14:00:00 9.8 18 Sudoeste 39 Sudoeste 0 -- -- 43
2019-11-07 13:00:00 10.8 14 Sudoeste 33 Sudoeste 0 -- -- 42
2019-11-07 12:00:00 9.7 4 Sudeste 11 Sudeste 0 -- -- 61
2019-11-07 11:00:00 8.7 0 Calma 7 Sudoeste 0 -- -- 68
2019-11-07 10:00:00 6.8 0 Calma 5 Nordeste 0 -- -- 88
2019-11-07 09:00:00 5.8 0 Calma 4 Noroeste 0 -- -- 94
2019-11-07 08:00:00 5.8 0 Calma 5 Norte 0 -- -- 93
2019-11-07 07:00:00 6.6 0 Calma 6 Nordeste 0 -- -- 92
2019-11-07 06:00:00 7 0 Calma 6 Nordeste 0 -- -- 92
2019-11-07 05:00:00 7.3 0 Calma 12 Este 0.7 -- -- 92
2019-11-07 04:00:00 7.7 0 Calma 14 Nordeste 2.3 -- -- 92
2019-11-07 03:00:00 9 6 Nordeste 18 Nordeste 1.2 -- -- 92
2019-11-07 02:00:00 10.1 0 Calma 15 Oeste 0.2 -- -- 87
2019-11-07 01:00:00 10.1 8 Sudoeste 15 Sudoeste 0 -- -- 82
2019-11-07 00:00:00 10 8 Sudoeste 18 Sudoeste 0 -- -- 81
2019-11-06 23:00:00 10 9 Sudoeste 22 Sudoeste 0 -- -- 80
2019-11-06 22:00:00 10.1 17 Sudoeste 32 Sudoeste 0 -- -- 79
2019-11-06 21:00:00 10.1 14 Sudoeste 27 Sudoeste 0 -- -- 74
2019-11-06 20:00:00 10.7 10 Sudoeste 22 Sur 0 -- -- 63
2019-11-06 19:00:00 10.4 9 Sudoeste 19 Sudoeste 0 -- -- 63
2019-11-06 18:00:00 10.7 11 Sudoeste 23 Sudoeste 0 -- -- 57
2019-11-06 17:00:00 12.2 11 Sudoeste 27 Sudoeste 0 -- -- 54
2019-11-06 16:00:00 12.7 16 Sudoeste 30 Sudoeste 0 -- -- 48
2019-11-06 15:00:00 13.2 12 Sudoeste 24 Sudoeste 0 -- -- 48
2019-11-06 14:00:00 11.8 5 Sudoeste 14 Sudoeste 0 -- -- 55
2019-11-06 13:00:00 9.9 6 Sudoeste 12 Sudoeste 0 -- -- 70
2019-11-06 12:00:00 7.5 4 Sur 9 Sur 0 -- -- 85
2019-11-06 11:00:00 6.7 4 Sudoeste 8 Sudoeste 0 -- -- 89
2019-11-06 10:00:00 5.8 5 Sudoeste 10 Sudoeste 0 -- -- 95
2019-11-06 09:00:00 5.6 4 Sudoeste 7 Sudoeste 0 -- -- 95
2019-11-06 08:00:00 5.7 2 Sudoeste 6 Sudoeste 0.3 -- -- 95
2019-11-06 07:00:00 6.2 4 Sudoeste 7 Sudoeste 0 -- -- 95
2019-11-06 06:00:00 6.2 0 Calma 6 Sur 0.1 -- -- 94
2019-11-06 05:00:00 6.2 0 Calma 4 Noroeste 0.1 -- -- 94
2019-11-06 04:00:00 6.7 0 Calma 9 Sudoeste 1.8 -- -- 93
2019-11-06 03:00:00 7.5 0 Calma 19 Oeste 0.1 -- -- 87
2019-11-06 02:00:00 8 2 Noroeste 17 Nordeste 0 -- -- 76
2019-11-06 01:00:00 7.5 0 Calma 20 Sur 0 -- -- 88
2019-11-06 00:00:00 7 3 Sudeste 9 Sudeste 0 -- -- 93
2019-11-05 23:00:00 7.2 0 Calma 11 Sudoeste 0.2 -- -- 94
2019-11-05 22:00:00 7.3 0 Calma 5 Sudoeste 0.1 -- -- 94
2019-11-05 21:00:00 7.1 0 Calma 7 Sudeste 0.4 -- -- 93
2019-11-05 20:00:00 7.4 0 Calma 15 Sudoeste 0.5 -- -- 87
2019-11-05 19:00:00 7.7 0 Calma 4 Oeste 0.1 -- -- 94
2019-11-05 18:00:00 8 0 Calma 5 Sudeste 1 -- -- 92
2019-11-05 17:00:00 8.7 0 Calma 9 Noroeste 1.5 -- -- 88
2019-11-05 16:00:00 8 4 Oeste 31 Sudoeste 1.1 -- -- 83
2019-11-05 15:00:00 10.5 14 Sudoeste 30 Sudoeste 0 -- -- 65
2019-11-05 14:00:00 9.6 17 Sudoeste 32 Sudoeste 0 -- -- 71
2019-11-05 13:00:00 8.5 6 Oeste 24 Sudoeste 1.6 -- -- 85
2019-11-05 12:00:00 7.9 4 Oeste 23 Sudoeste 0.7 -- -- 85
2019-11-05 11:00:00 8.5 12 Sudoeste 28 Sudoeste 1.7 -- -- 82
2019-11-05 10:00:00 7.3 13 Sudoeste 25 Sudoeste 0.3 -- -- 78
2019-11-05 09:00:00 7.1 13 Sudoeste 30 Sudoeste 0 -- -- 74
2019-11-05 08:00:00 5.9 12 Sudoeste 28 Oeste 0 -- -- 75
2019-11-05 07:00:00 5.6 8 Sudoeste 23 Sudoeste 0 -- -- 75
2019-11-05 06:00:00 5.9 12 Sudoeste 23 Sudoeste 0 -- -- 72
2019-11-05 05:00:00 6.4 5 Sudoeste 26 Sudoeste 0 -- -- 70
2019-11-05 04:00:00 6.9 12 Sudoeste 25 Sudoeste 0 -- -- 69
2019-11-05 03:00:00 6.7 11 Sudoeste 28 Sudoeste 0 -- -- 70
2019-11-05 02:00:00 6.9 18 Sudoeste 31 Sudoeste 0 -- -- 68
2019-11-05 01:00:00 6.7 13 Sudoeste 28 Sudoeste 0 -- -- 69
2019-11-05 00:00:00 7.1 15 Sudoeste 30 Sudoeste 0 -- -- 68
2019-11-04 23:00:00 7.4 16 Sudoeste 30 Sudoeste 0 -- -- 66
2019-11-04 22:00:00 7.8 6 Sudoeste 27 Sudoeste 0 -- -- 62
2019-11-04 21:00:00 8.9 16 Sudoeste 33 Sudoeste 0 -- -- 57
2019-11-04 20:00:00 10 12 Sudoeste 28 Sudoeste 0 -- -- 50
2019-11-04 19:00:00 11.5 14 Sudoeste 36 Sudoeste 0 -- -- 50
2019-11-04 18:00:00 12.6 16 Sudoeste 33 Sudoeste 0 -- -- 49
2019-11-04 17:00:00 14.5 16 Sudoeste 46 Sudoeste 0 -- -- 47
2019-11-04 16:00:00 15 22 Sudoeste 44 Sudoeste 0 -- -- 45
2019-11-04 15:00:00 15.6 23 Sudoeste 43 Sudoeste 0 -- -- 45
2019-11-04 14:00:00 14.7 22 Sudoeste 59 Sudoeste 0 -- -- 57
2019-11-04 13:00:00 13.7 19 Sudoeste 44 Sudoeste 0.6 -- -- 69
2019-11-04 12:00:00 13.9 21 Sudoeste 42 Sudoeste 0.1 -- -- 76
2019-11-04 11:00:00 13.6 21 Sudoeste 44 Sudoeste 0 -- -- 74
2019-11-04 10:00:00 13.5 21 Sudoeste 45 Sudoeste 0 -- -- 73
2019-11-04 09:00:00 12.2 22 Sudoeste 44 Sudoeste 0 -- -- 78
2019-11-04 08:00:00 12.3 23 Sudoeste 50 Sudoeste 0 -- -- 75
2019-11-04 07:00:00 12.4 24 Sudoeste 49 Sudoeste 0 -- -- 75
2019-11-04 06:00:00 12.6 17 Sudoeste 42 Sudoeste 0 -- -- 71
2019-11-04 05:00:00 12.8 20 Sudoeste 42 Sudoeste 0 -- -- 70
2019-11-04 04:00:00 13.3 17 Sudoeste 52 Sudoeste 0 -- -- 71
2019-11-04 03:00:00 13.6 22 Sudoeste 41 Sudoeste 0 -- -- 71
2019-11-04 02:00:00 13.3 21 Sudoeste 39 Sudoeste 0 -- -- 75
2019-11-04 01:00:00 13.1 21 Sudoeste 39 Sudoeste 0 -- -- 76
2019-11-04 00:00:00 12.8 18 Sudoeste 35 Sudoeste 0 -- -- 79
2019-11-03 23:00:00 12.3 18 Sudoeste 34 Sudoeste 0 -- -- 80
2019-11-03 22:00:00 11.6 15 Sudoeste 29 Sudoeste 0 -- -- 84
2019-11-03 21:00:00 12.5 13 Sudoeste 66 Sudoeste 0 -- -- 70
2019-11-03 20:00:00 12.2 13 Sudoeste 31 Sudoeste 0 -- -- 70
2019-11-03 19:00:00 12.5 13 Sudoeste 36 Sudoeste 0 -- -- 57
2019-11-03 18:00:00 13 9 Sudoeste 23 Sudoeste 0 -- -- 51
2019-11-03 17:00:00 14.5 9 Sudoeste 50 Sudoeste 0 -- -- 46
2019-11-03 16:00:00 15.2 15 Sudoeste 28 Sudoeste 0 -- -- 44
2019-11-03 15:00:00 15.6 14 Sudoeste 35 Sudoeste 0 -- -- 36
2019-11-03 14:00:00 15.1 19 Sudoeste 43 Sudoeste 0 -- -- 34
2019-11-03 13:00:00 14.7 16 Sudoeste 32 Sudoeste 0 -- -- 38
2019-11-03 12:00:00 13 13 Sudoeste 28 Sudoeste 0 -- -- 40
2019-11-03 11:00:00 11.9 10 Sudoeste 21 Sudoeste 0 -- -- 48
2019-11-03 10:00:00 9.9 4 Sur 10 Sudeste 0 -- -- 68
2019-11-03 09:00:00 6.6 0 Calma 6 Nordeste 0 -- -- 94
2019-11-03 08:00:00 5.3 0 Calma 7 Sudoeste 0 -- -- 93
2019-11-03 07:00:00 6.7 3 Nordeste 13 Nordeste 0 -- -- 88
2019-11-03 06:00:00 8.7 3 Noroeste 20 Nordeste 1.4 -- -- 83
2019-11-03 05:00:00 11.5 5 Oeste 36 Sudoeste 0 -- -- 80
2019-11-03 04:00:00 11.5 12 Sudoeste 34 Sudoeste 0 -- -- 78
2019-11-03 03:00:00 11.6 16 Sudoeste 45 Sudoeste 0 -- -- 74
2019-11-03 02:00:00 11.4 22 Sudoeste 56 Sudoeste 0 -- -- 74
2019-11-03 01:00:00 11.7 21 Sudoeste 51 Sudoeste 0 -- -- 71
2019-11-03 00:00:00 11.7 23 Sudoeste 55 Sudoeste 0 -- -- 70
2019-11-02 23:00:00 11.7 27 Sudoeste 49 Sudoeste 0.4 -- -- 70
2019-11-02 22:00:00 11.2 22 Sudoeste 48 Sudoeste 0.1 -- -- 77
2019-11-02 21:00:00 12.8 24 Sudoeste 45 Sudoeste 0 -- -- 60
2019-11-02 20:00:00 13.1 20 Sudoeste 45 Sudoeste 0 -- -- 60
2019-11-02 19:00:00 12.9 17 Sudoeste 41 Sudoeste 0 -- -- 64
2019-11-02 18:00:00 13.1 13 Sudoeste 30 Sudoeste 0 -- -- 67
2019-11-02 17:00:00 14.2 15 Sudoeste 34 Sudoeste 0 -- -- 57
2019-11-02 16:00:00 14.5 16 Sudoeste 34 Sudoeste 0 -- -- 59
2019-11-02 15:00:00 14.7 15 Sudoeste 42 Sudoeste 0 -- -- 57
2019-11-02 14:00:00 15.1 18 Sudoeste 34 Sudoeste 0 -- -- 52
2019-11-02 13:00:00 15.4 16 Sudoeste 34 Sudoeste 0 -- -- 53
2019-11-02 12:00:00 14.6 19 Sudoeste 38 Sudoeste 0 -- -- 56
2019-11-02 11:00:00 15.1 18 Sudoeste 32 Sudoeste 0 -- -- 64
2019-11-02 10:00:00 15.4 14 Sudoeste 31 Sudoeste 0 -- -- 67
2019-11-02 09:00:00 14.9 18 Sudoeste 32 Sudoeste 0 -- -- 73
2019-11-02 08:00:00 14 11 Sudoeste 25 Sudoeste 0 -- -- 80
2019-11-02 07:00:00 14.4 10 Sudoeste 22 Sudoeste 0 -- -- 78
2019-11-02 06:00:00 14.7 12 Sudoeste 25 Sudoeste 0 -- -- 75
2019-11-02 05:00:00 14.3 11 Sudoeste 30 Sudoeste 0 -- -- 75
2019-11-02 04:00:00 14.8 16 Sudoeste 33 Sudoeste 0 -- -- 75
2019-11-02 03:00:00 14.8 12 Sudoeste 25 Sudoeste 0 -- -- 76
2019-11-02 02:00:00 14.9 11 Sudoeste 27 Sudoeste 0 -- -- 75
2019-11-02 01:00:00 14.3 12 Sudoeste 22 Sudoeste 0 -- -- 78
2019-11-02 00:00:00 14.8 11 Sudoeste 22 Sudoeste 0 -- -- 75
2019-11-01 23:00:00 15.6 12 Sudoeste 32 Sudoeste 0 -- -- 72
2019-11-01 22:00:00 14.5 10 Sudoeste 24 Sudoeste 0 -- -- 79
2019-11-01 21:00:00 14.3 4 Sudoeste 18 Sudoeste 0 -- -- 74
2019-11-01 20:00:00 15.5 10 Sudoeste 28 Sudoeste 0 -- -- 69
2019-11-01 19:00:00 16.6 15 Sudoeste 31 Sudoeste 0 -- -- 70
2019-11-01 18:00:00 17.4 15 Sudoeste 35 Sudoeste 0 -- -- 68
2019-11-01 17:00:00 17.7 10 Sudoeste 35 Sudoeste 0 -- -- 70
2019-11-01 16:00:00 18.1 9 Oeste 33 Sudoeste 1.8 -- -- 87
2019-11-01 15:00:00 18.9 17 Sudoeste 38 Sudoeste 0 -- -- 68
2019-11-01 14:00:00 18.1 9 Sur 28 Sudoeste 0 -- -- 73
2019-11-01 13:00:00 18.2 11 Sudoeste 24 Sudoeste 0 -- -- 70
2019-11-01 12:00:00 17.7 13 Sudoeste 25 Sudoeste 0 -- -- 70
2019-11-01 11:00:00 17.3 17 Sudoeste 34 Sudoeste 0 -- -- 71
2019-11-01 10:00:00 17.1 12 Sudoeste 26 Sudoeste 0 -- -- 71
2019-11-01 09:00:00 16.2 7 Sudoeste 18 Sudoeste 0 -- -- 79
2019-11-01 08:00:00 16 10 Sudoeste 20 Sudoeste 0 -- -- 79
2019-11-01 07:00:00 15.6 9 Sudoeste 22 Sudoeste 0 -- -- 82
2019-11-01 06:00:00 14 0 Calma 12 Sur 0 -- -- 89
2019-11-01 05:00:00 14.7 3 Sudoeste 19 Sudoeste 0 -- -- 84
2019-11-01 04:00:00 15.6 8 Sudoeste 18 Sudoeste 0 -- -- 81
2019-11-01 03:00:00 15.8 8 Sudoeste 17 Sudoeste 0 -- -- 79
2019-11-01 02:00:00 16 8 Sudoeste 23 Sudoeste 0 -- -- 77
2019-11-01 01:00:00 15.9 4 Sudoeste 19 Sudoeste 0 -- -- 77
2019-11-01 00:00:00 16.2 12 Sudoeste 23 Sudoeste 0 -- -- 75
2019-10-31 23:00:00 13.7 0 Calma -- -- 0 -- -- 89
2019-10-31 22:00:00 13.9 0 Calma -- -- 0 -- -- 87
2019-10-31 21:00:00 14.5 0 Calma 2 Noroeste 0 -- -- 83
2019-10-31 20:00:00 14.7 0 Calma 5 Nordeste 0 -- -- 80
2019-10-31 19:00:00 15.1 0 Calma 8 Nordeste 0 -- -- 76
2019-10-31 18:00:00 16.8 3 Nordeste 6 Este 0 -- -- 68
2019-10-31 17:00:00 18.5 2 Nordeste 7 Nordeste 0 -- -- 54
2019-10-31 16:00:00 19.8 0 Calma 6 Oeste 0 -- -- 46
2019-10-31 15:00:00 19.3 4 Sudoeste 18 Sudoeste 0 -- -- 45
2019-10-31 14:00:00 19.9 5 Sudoeste 15 Sur 0 -- -- 47
2019-10-31 13:00:00 17.7 3 Sur 10 Sudoeste 0 -- -- 56
2019-10-31 12:00:00 16.2 3 Sur 8 Sudoeste 0 -- -- 66
2019-10-31 11:00:00 15.2 3 Sudoeste 9 Sudoeste 0 -- -- 72
2019-10-31 10:00:00 13 0 Calma 4 Oeste 0 -- -- 94
2019-10-31 09:00:00 12.7 0 Calma 4 Sur 0 -- -- 94
2019-10-31 08:00:00 12.3 0 Calma 4 Oeste 0 -- -- 94
2019-10-31 07:00:00 12.4 0 Calma 4 Nordeste 0 -- -- 94
2019-10-31 06:00:00 12.1 0 Calma 4 Nordeste 0 -- -- 94
2019-10-31 05:00:00 12.5 0 Calma 4 Sudoeste 0 -- -- 94
2019-10-31 04:00:00 12.5 0 Calma 4 Oeste 0 -- -- 93
2019-10-31 03:00:00 12.2 0 Calma 3 Nordeste 0 -- -- 93
2019-10-31 02:00:00 12.7 0 Calma 5 Nordeste 0.1 -- -- 93
2019-10-31 01:00:00 13.2 0 Calma 12 Nordeste 0.7 -- -- 93
2019-10-31 00:00:00 13.5 6 Nordeste 17 Este 0 -- -- 91
2019-10-30 23:00:00 14.6 0 Calma 7 Sudoeste 0 -- -- 89
2019-10-30 22:00:00 14.8 5 Sudoeste 11 Sudoeste 0 -- -- 86
2019-10-30 21:00:00 14.7 9 Sudoeste 22 Sudoeste 0 -- -- 85
2019-10-30 20:00:00 14.4 8 Sudoeste 15 Sudoeste 0 -- -- 85
2019-10-30 19:00:00 14.4 8 Sudoeste 15 Sudoeste 0 -- -- 86
2019-10-30 18:00:00 14.2 8 Sudoeste 13 Sudoeste 0.3 -- -- 88
2019-10-30 17:00:00 15 8 Sudoeste 24 Sudoeste 0.1 -- -- 79
2019-10-30 16:00:00 16.2 14 Sudoeste 26 Sudoeste 0 -- -- 66
2019-10-30 15:00:00 16.6 14 Sudoeste 24 Sudoeste 0 -- -- 66
2019-10-30 14:00:00 16.3 11 Sudoeste 22 Sudoeste 0 -- -- 67
2019-10-30 13:00:00 16 13 Sudoeste 28 Sudoeste 0 -- -- 67
2019-10-30 12:00:00 16.1 9 Sudoeste 19 Sudoeste 0 -- -- 71
2019-10-30 11:00:00 15.1 8 Sudoeste 19 Sudoeste 0 -- -- 76
2019-10-30 10:00:00 11.9 2 Sudoeste 5 Sudoeste 0 -- -- 92
2019-10-30 09:00:00 10 0 Calma 4 Nordeste 0 -- -- 94
2019-10-30 08:00:00 9.1 0 Calma 5 Sudoeste 0 -- -- 94
2019-10-30 07:00:00 8.2 0 Calma 4 Sudoeste 0 -- -- 94
2019-10-30 06:00:00 7.7 0 Calma 6 Nordeste 0 -- -- 94
2019-10-30 05:00:00 6.4 3 Sudoeste 5 Nordeste 0 -- -- 94
2019-10-30 04:00:00 5.7 3 Nordeste 6 Nordeste 0 -- -- 94
2019-10-30 03:00:00 6.6 0 Calma 5 Sudoeste 0 -- -- 94
2019-10-30 02:00:00 6.7 0 Calma 3 Sudoeste 0 -- -- 93
2019-10-30 01:00:00 6.8 0 Calma 5 Nordeste 0 -- -- 93
2019-10-30 00:00:00 7 0 Calma 4 Sudoeste 0 -- -- 92
2019-10-29 23:00:00 8 0 Calma 3 Oeste 0 -- -- 92
2019-10-29 22:00:00 8.8 0 Calma 4 Oeste 0 -- -- 90
2019-10-29 21:00:00 9.7 0 Calma 3 Noroeste 0 -- -- 84
2019-10-29 20:00:00 10.7 0 Calma 7 Norte 0 -- -- 80
2019-10-29 19:00:00 12.1 0 Calma 8 Noroeste 0 -- -- 75
2019-10-29 18:00:00 14.6 0 Calma 17 Sudoeste 0 -- -- 61
2019-10-29 17:00:00 18.7 6 Sudoeste 24 Sudoeste 0 -- -- 49
2019-10-29 16:00:00 18.8 10 Sudoeste 26 Sudoeste 0 -- -- 51
2019-10-29 15:00:00 17.5 11 Sudoeste 26 Sudoeste 0 -- -- 56
2019-10-29 14:00:00 17.5 10 Sudoeste 22 Sudoeste 0 -- -- 58
2019-10-29 13:00:00 17.8 8 Sudoeste 19 Sudoeste 0 -- -- 56
2019-10-29 12:00:00 16.7 7 Sudoeste 17 Sudoeste 0 -- -- 61
2019-10-29 11:00:00 15.8 5 Sur 14 Sudoeste 0 -- -- 72
2019-10-29 10:00:00 14.6 5 Sudoeste 12 Sudoeste 0 -- -- 83
2019-10-29 09:00:00 13.1 5 Sudoeste 15 Sudoeste 0 -- -- 89
2019-10-29 08:00:00 12.3 8 Sudoeste 14 Sudoeste 0 -- -- 94
2019-10-29 07:00:00 10.9 3 Sudoeste 8 Sudoeste 0 -- -- 94
2019-10-29 06:00:00 8.9 0 Calma 5 Sudoeste 0 -- -- 94
2019-10-29 05:00:00 8 0 Calma 2 Nordeste 0 -- -- 94
2019-10-29 04:00:00 8 0 Calma 5 Sudoeste 0 -- -- 94
2019-10-29 03:00:00 8.1 0 Calma 3 Sudoeste 0 -- -- 93
2019-10-29 02:00:00 8.4 0 Calma 5 Este 0 -- -- 93
2019-10-29 01:00:00 9.3 0 Calma 4 Oeste 0 -- -- 92
2019-10-29 00:00:00 9.7 0 Calma -- -- 0 -- -- 92
2019-10-28 23:00:00 10.2 0 Calma -- -- 0 -- -- 90
2019-10-28 22:00:00 11 0 Calma 3 Nordeste 0 -- -- 86
2019-10-28 21:00:00 11.5 0 Calma 5 Oeste 0 -- -- 80
2019-10-28 20:00:00 13.1 0 Calma 5 Norte 0 -- -- 71
2019-10-28 19:00:00 14 0 Calma 4 Norte 0 -- -- 66
2019-10-28 18:00:00 16.9 0 Calma 21 Sudoeste 0 -- -- 48
2019-10-28 17:00:00 19.6 8 Sudoeste 21 Sudoeste 0 -- -- 39
2019-10-28 16:00:00 21.7 9 Sudoeste 24 Sudoeste 0 -- -- 35
2019-10-28 15:00:00 22 9 Sudoeste 33 Sudoeste 0 -- -- 35
2019-10-28 14:00:00 21.7 15 Sudoeste 37 Sudoeste 0 -- -- 36
2019-10-28 13:00:00 20.6 16 Sudoeste 36 Sudoeste 0 -- -- 37
2019-10-28 12:00:00 20.1 14 Sudoeste 30 Sudoeste 0 -- -- 39
2019-10-28 11:00:00 18.4 5 Sur 15 Sudoeste 0 -- -- 50
2019-10-28 10:00:00 14.6 3 Sudoeste 7 Oeste 0 -- -- 71
2019-10-28 09:00:00 11 0 Calma 8 Oeste 0 -- -- 88
2019-10-28 08:00:00 10.7 0 Calma 4 Oeste 0 -- -- 88
2019-10-28 07:00:00 10.7 0 Calma 4 Sudeste 0 -- -- 89
2019-10-28 06:00:00 10.6 0 Calma 4 Oeste 0 -- -- 89
2019-10-28 05:00:00 10.3 0 Calma 6 Oeste 0 -- -- 92
2019-10-28 04:00:00 10.1 0 Calma 4 Oeste 0 -- -- 92
2019-10-28 03:00:00 9.9 3 Sudoeste 6 Sudoeste 0 -- -- 92
2019-10-28 02:00:00 9.5 0 Calma 5 Nordeste 0 -- -- 92
2019-10-28 01:00:00 9.6 0 Calma 4 Sur 0 -- -- 92
2019-10-28 00:00:00 10.1 0 Calma -- -- 0 -- -- 91
2019-10-27 23:00:00 10.3 0 Calma -- -- 0 -- -- 89
2019-10-27 22:00:00 11 0 Calma 4 Noroeste 0 -- -- 84
2019-10-27 21:00:00 11.6 0 Calma 5 Norte 0 -- -- 81
2019-10-27 20:00:00 12.8 0 Calma 5 Noroeste 0 -- -- 75
2019-10-27 19:00:00 13.8 0 Calma 11 Oeste 0 -- -- 69
2019-10-27 18:00:00 15.8 0 Calma 13 Sudoeste 0 -- -- 56
2019-10-27 17:00:00 18.3 2 Sur 12 Sur 0 -- -- 46
2019-10-27 16:00:00 19.2 6 Sudoeste 17 Sudoeste 0 -- -- 43
2019-10-27 15:00:00 17.8 5 Sudoeste 19 Sudoeste 0 -- -- 47
2019-10-27 14:00:00 18.3 5 Sudoeste 19 Sur 0 -- -- 47
2019-10-27 13:00:00 17.6 7 Sudoeste 13 Sudoeste 0 -- -- 50
2019-10-27 12:00:00 16.3 7 Sudoeste 14 Sudoeste 0 -- -- 56
2019-10-27 11:00:00 11.9 3 Sudoeste 7 Oeste 0 -- -- 79
2019-10-27 10:00:00 8.3 0 Calma -- -- 0 -- -- 94
2019-10-27 09:00:00 6.7 0 Calma -- -- 0 -- -- 94
2019-10-27 08:00:00 5.8 0 Calma -- -- 0 -- -- 94
2019-10-27 07:00:00 5.6 0 Calma 4 Nordeste 0 -- -- 94
2019-10-27 06:00:00 5.5 0 Calma 3 Sudoeste 0 -- -- 94
2019-10-27 05:00:00 5.6 0 Calma 4 Sudoeste 0 -- -- 94
2019-10-27 04:00:00 5.8 0 Calma 4 Nordeste 0 -- -- 94
2019-10-27 03:00:00 5.7 0 Calma 3 Sudoeste 0 -- -- 93
2019-10-27 02:00:00 6.6 0 Calma 4 Sudoeste 0 -- -- 92
2019-10-27 01:00:00 8.3 0 Calma 6 Sudoeste 0 -- -- 91
2019-10-27 00:00:00 8.7 4 Sudoeste 10 Sudoeste 0 -- -- 90
2019-10-26 23:00:00 9.3 6 Sudoeste 11 Sudoeste 0 -- -- 88
2019-10-26 22:00:00 9.8 0 Calma 5 Oeste 0 -- -- 85
2019-10-26 21:00:00 11.2 0 Calma 4 Sudoeste 0 -- -- 78
2019-10-26 20:00:00 13.4 0 Calma 18 Sudoeste 0 -- -- 63
2019-10-26 19:00:00 17.6 13 Sudoeste 26 Sudoeste 0 -- -- 44
2019-10-26 18:00:00 19.5 13 Sudoeste 26 Sudoeste 0 -- -- 40
2019-10-26 17:00:00 21.3 12 Sudoeste 27 Sudoeste 0 -- -- 37
2019-10-26 16:00:00 21.3 15 Sudoeste 29 Sudoeste 0 -- -- 38
2019-10-26 15:00:00 20.9 13 Sudoeste 28 Sudoeste 0 -- -- 38
2019-10-26 14:00:00 19.4 13 Sudoeste 25 Sudoeste 0 -- -- 41
2019-10-26 13:00:00 18 14 Sudoeste 27 Sudoeste 0 -- -- 44
2019-10-26 12:00:00 16.7 12 Sudoeste 23 Sudoeste 0 -- -- 55
2019-10-26 11:00:00 13.4 6 Sudoeste 12 Sudoeste 0 -- -- 70
2019-10-26 10:00:00 6.4 3 Sudoeste 7 Oeste 0 -- -- 95
2019-10-26 09:00:00 3 0 Calma 3 Nordeste 0 -- -- 95
2019-10-26 08:00:00 3.6 0 Calma 5 Oeste 0 -- -- 95
2019-10-26 07:00:00 3.3 0 Calma 3 Oeste 0 -- -- 94
2019-10-26 06:00:00 4 0 Calma 6 Sudoeste 0 -- -- 94
2019-10-26 05:00:00 4.7 0 Calma 4 Sudoeste 0 -- -- 94
2019-10-26 04:00:00 5.5 0 Calma 5 Sudoeste 0 -- -- 94
2019-10-26 03:00:00 5.9 3 Sudoeste 6 Sudoeste 0 -- -- 94
2019-10-26 02:00:00 6.5 4 Sudoeste 5 Sudoeste 0 -- -- 94
2019-10-26 01:00:00 6.5 0 Calma 7 Sur 0 -- -- 94
2019-10-26 00:00:00 6.6 0 Calma 8 Nordeste 0 -- -- 93
2019-10-25 23:00:00 8 0 Calma 4 Norte 0 -- -- 92
2019-10-25 22:00:00 8.4 0 Calma 7 Norte 0 -- -- 89
2019-10-25 21:00:00 9.8 0 Calma 7 Noroeste 0 -- -- 87
2019-10-25 20:00:00 12 0 Calma 11 Oeste 0 -- -- 75
2019-10-25 19:00:00 15.9 6 Sudoeste 16 Sudoeste 0 -- -- 53
2019-10-25 18:00:00 17.4 9 Sudoeste 21 Sudoeste 0 -- -- 50
2019-10-25 17:00:00 18.8 9 Sudoeste 23 Sudoeste 0 -- -- 49
2019-10-25 16:00:00 17.6 9 Sur 19 Sudoeste 0 -- -- 51
2019-10-25 15:00:00 16.5 9 Sur 22 Sudoeste 0 -- -- 56
2019-10-25 14:00:00 15 10 Sudoeste 21 Oeste 0 -- -- 61
2019-10-25 13:00:00 14 13 Sudoeste 30 Sudoeste 0 -- -- 66
2019-10-25 12:00:00 14 14 Sudoeste 27 Sudoeste 0 -- -- 66
2019-10-25 11:00:00 13.2 10 Sudoeste 26 Sudoeste 0 -- -- 67
2019-10-25 10:00:00 11.9 10 Sudoeste 24 Sudoeste 0 -- -- 77
2019-10-25 09:00:00 10 11 Sudoeste 18 Sudoeste 0 -- -- 87
2019-10-25 08:00:00 10.5 5 Sudoeste 16 Sudoeste 0 -- -- 85
2019-10-25 07:00:00 10.9 8 Sur 18 Sudoeste 0 -- -- 84
2019-10-25 06:00:00 11 9 Sur 16 Sudoeste 0 -- -- 84
2019-10-25 05:00:00 11.1 8 Sudoeste 22 Sudoeste 0 -- -- 85
2019-10-25 04:00:00 11.5 8 Sudoeste 19 Sudoeste 0 -- -- 84
2019-10-25 03:00:00 11.8 6 Sur 18 Sudoeste 0 -- -- 83
2019-10-25 02:00:00 12 9 Sudoeste 20 Sudoeste 0 -- -- 83
2019-10-25 01:00:00 12.2 7 Sudoeste 15 Sudoeste 0 -- -- 83
2019-10-25 00:00:00 12 6 Sudoeste 11 Sudoeste 0 -- -- 87
2019-10-24 23:00:00 10.9 0 Calma 11 Oeste 0 -- -- 92
2019-10-24 22:00:00 10.5 0 Calma 4 Oeste 0 -- -- 91
2019-10-24 21:00:00 9.9 0 Calma 4 Nordeste 0 -- -- 91
2019-10-24 20:00:00 11.2 2 Sudoeste 16 Sudoeste 0 -- -- 81
2019-10-24 19:00:00 13.1 7 Sudoeste 16 Sudoeste 0 -- -- 69
2019-10-24 18:00:00 13.2 7 Sudoeste 15 Sudoeste 0 -- -- 66
2019-10-24 17:00:00 13.3 6 Sur 22 Sudoeste 0 -- -- 67
2019-10-24 16:00:00 13.3 12 Sudoeste 28 Sudoeste 0 -- -- 66
2019-10-24 15:00:00 12.5 12 Sudoeste 26 Sudoeste 0 -- -- 66
2019-10-24 14:00:00 12.5 13 Sudoeste 24 Sudoeste 0 -- -- 66
2019-10-24 13:00:00 11.1 10 Sudoeste 21 Sudoeste 0 -- -- 70
2019-10-24 12:00:00 10.2 6 Sudoeste 18 Sudoeste 0 -- -- 72
2019-10-24 11:00:00 8.4 6 Sudoeste 10 Sudoeste 0 -- -- 88
2019-10-24 10:00:00 7.2 4 Sudoeste 7 Sudoeste 0 -- -- 93
2019-10-24 09:00:00 6.5 4 Sudoeste 13 Sudoeste 0 -- -- 93
2019-10-24 08:00:00 6 7 Sudoeste 12 Sudoeste 0 -- -- 94
2019-10-24 07:00:00 5.7 0 Calma 6 Sudoeste 0 -- -- 94
2019-10-24 06:00:00 6.1 0 Calma 9 Sudoeste 0.9 -- -- 93
2019-10-24 05:00:00 6.7 4 Sudoeste 7 Sudoeste 2 -- -- 94
2019-10-24 04:00:00 7 4 Sudoeste 8 Sudoeste 2.7 -- -- 94
2019-10-24 03:00:00 7.4 0 Calma 3 Sudoeste 3.2 -- -- 94
2019-10-24 02:00:00 7.6 0 Calma 4 Sudoeste 3 -- -- 94
2019-10-24 01:00:00 7.8 3 Sudoeste 5 Sudoeste 3.9 -- -- 94
2019-10-24 00:00:00 8.1 0 Calma 4 Oeste 4 -- -- 93
2019-10-23 23:00:00 8.4 0 Calma 11 Sudoeste 4.8 -- -- 93
2019-10-23 22:00:00 8.6 7 Sudoeste 14 Sudoeste 6.5 -- -- 93
2019-10-23 21:00:00 10 3 Sudoeste 6 Sudoeste 5.9 -- -- 93
2019-10-23 20:00:00 10.1 0 Calma 6 Este 0.2 -- -- 92
2019-10-23 19:00:00 10.5 4 Nordeste 11 Nordeste 2.7 -- -- 91
2019-10-23 18:00:00 12.4 0 Calma 12 Este 0.1 -- -- 85
2019-10-23 17:00:00 12.4 6 Nordeste 14 Este 0 -- -- 80
2019-10-23 16:00:00 12.2 5 Nordeste 17 Este 0 -- -- 87
2019-10-23 15:00:00 12.6 4 Nordeste 14 Este 0 -- -- 88
2019-10-23 14:00:00 11.9 4 Este 17 Este 0 -- -- 91
2019-10-23 13:00:00 11 5 Nordeste 14 Este 3.3 -- -- 94
2019-10-23 12:00:00 10.4 0 Calma 7 Sudeste 2.3 -- -- 94
2019-10-23 11:00:00 10.7 0 Calma 8 Sudoeste 1.3 -- -- 94
2019-10-23 10:00:00 10.4 3 Oeste 9 Sudoeste 4.5 -- -- 94
2019-10-23 09:00:00 10.4 0 Calma 10 Nordeste 6.1 -- -- 94
2019-10-23 08:00:00 10.3 3 Este 16 Nordeste 2.9 -- -- 94
2019-10-23 07:00:00 10.3 9 Nordeste 39 Nordeste 4.6 -- -- 92
2019-10-23 06:00:00 10.8 5 Nordeste 26 Nordeste 0 -- -- 83
2019-10-23 05:00:00 10.1 5 Nordeste 31 Nordeste 0 -- -- 86
2019-10-23 04:00:00 9.6 4 Nordeste 32 Nordeste 0 -- -- 90
2019-10-23 03:00:00 9.2 4 Sudeste 12 Norte 0.1 -- -- 91
2019-10-23 02:00:00 9 4 Sudeste 15 Nordeste 0 -- -- 89
2019-10-23 01:00:00 8.6 3 Nordeste 23 Nordeste 0 -- -- 89
2019-10-23 00:00:00 8.3 6 Nordeste 28 Nordeste 0 -- -- 87
2019-10-22 23:00:00 7.9 5 Nordeste 27 Nordeste 0.1 -- -- 88
2019-10-22 22:00:00 7.9 5 Nordeste 23 Nordeste 0.3 -- -- 90
2019-10-22 21:00:00 8 7 Nordeste 22 Nordeste 0.9 -- -- 90
2019-10-22 20:00:00 8.5 3 Nordeste 25 Nordeste 0.8 -- -- 90
2019-10-22 19:00:00 8.8 8 Nordeste 27 Nordeste 0.2 -- -- 85
2019-10-22 18:00:00 9.6 7 Nordeste 24 Nordeste 0 -- -- 78
2019-10-22 17:00:00 10.2 7 Nordeste 24 Nordeste 0 -- -- 74
2019-10-22 16:00:00 9.8 5 Nordeste 23 Nordeste 0 -- -- 78
2019-10-22 15:00:00 9.6 6 Nordeste 20 Nordeste 0.1 -- -- 84
2019-10-22 14:00:00 9.2 6 Nordeste 17 Nordeste 0 -- -- 85
2019-10-22 13:00:00 9.3 6 Nordeste 20 Nordeste 0 -- -- 79
2019-10-22 12:00:00 7.2 0 Calma 4 Sudoeste 0 -- -- 91
2019-10-22 11:00:00 6 0 Calma 5 Sudoeste 0 -- -- 94
2019-10-22 10:00:00 4.6 0 Calma 4 Este 0 -- -- 94
2019-10-22 09:00:00 3.7 0 Calma 4 Este 0 -- -- 94
2019-10-22 08:00:00 3.4 0 Calma 4 Norte 0 -- -- 94
2019-10-22 07:00:00 4.7 0 Calma 4 Nordeste 0 -- -- 93
2019-10-22 06:00:00 6.1 0 Calma 5 Sudeste 0 -- -- 93
2019-10-22 05:00:00 6.1 0 Calma 5 Este 0 -- -- 93
2019-10-22 04:00:00 6.4 0 Calma 5 Nordeste 0 -- -- 94
2019-10-22 03:00:00 6.3 0 Calma 4 Nordeste 0 -- -- 94
2019-10-22 02:00:00 6 0 Calma 4 Nordeste 0 -- -- 94
2019-10-22 01:00:00 5.6 0 Calma 4 Norte 0 -- -- 93
2019-10-22 00:00:00 5.5 0 Calma 3 Noroeste 0 -- -- 93
2019-10-21 23:00:00 5.8 0 Calma 4 Oeste 0 -- -- 92
2019-10-21 22:00:00 6.8 0 Calma 6 Nordeste 0 -- -- 89
2019-10-21 21:00:00 7.5 0 Calma 9 Nordeste 0 -- -- 86
2019-10-21 20:00:00 8.7 4 Nordeste 10 Nordeste 0 -- -- 79
2019-10-21 19:00:00 10.5 3 Nordeste 10 Nordeste 0 -- -- 64
2019-10-21 18:00:00 12.2 0 Calma 5 Sudoeste 0 -- -- 55
2019-10-21 17:00:00 12.5 0 Calma 9 Sudoeste 0 -- -- 49
2019-10-21 16:00:00 12 3 Sudoeste 8 Sudoeste 0 -- -- 51
2019-10-21 15:00:00 11.6 0 Calma 8 Sudeste 0 -- -- 60
2019-10-21 14:00:00 10.7 3 Sur 12 Sudoeste 0 -- -- 68
2019-10-21 13:00:00 9.3 5 Sudoeste 10 Sudoeste 0 -- -- 74
2019-10-21 12:00:00 7.5 0 Calma 9 Oeste 0 -- -- 83
2019-10-21 11:00:00 6.7 3 Oeste 8 Sudoeste 0 -- -- 88
2019-10-21 10:00:00 6.1 0 Calma 5 Oeste 0 -- -- 95
2019-10-21 09:00:00 5.5 0 Calma 5 Sudoeste 0 -- -- 95
2019-10-21 08:00:00 5.4 0 Calma 5 Nordeste 0 -- -- 95
2019-10-21 07:00:00 5.2 0 Calma 4 Este 0 -- -- 95
2019-10-21 06:00:00 5.1 0 Calma 4 Oeste 0 -- -- 95
2019-10-21 05:00:00 4.7 0 Calma 6 Nordeste 0 -- -- 95
2019-10-21 04:00:00 4.6 3 Nordeste 7 Oeste 0 -- -- 95
2019-10-21 03:00:00 4.6 3 Sudoeste 9 Sudoeste 0 -- -- 95
2019-10-21 02:00:00 4.7 4 Sudoeste 7 Sudoeste 0 -- -- 95
2019-10-21 01:00:00 4.3 0 Calma 3 Noroeste 0 -- -- 94
2019-10-21 00:00:00 4.2 0 Calma 4 Norte 0 -- -- 94
2019-10-20 23:00:00 5.2 0 Calma 5 Sudoeste 0 -- -- 94
2019-10-20 22:00:00 5.5 0 Calma 4 Nordeste 0 -- -- 93
2019-10-20 21:00:00 6.5 0 Calma 4 Norte 0 -- -- 93
2019-10-20 20:00:00 6.7 0 Calma 5 Nordeste 0.2 -- -- 92
2019-10-20 19:00:00 7.9 0 Calma 6 Sudeste 0.6 -- -- 92
2019-10-20 18:00:00 8.2 2 Oeste 8 Sudoeste 0.2 -- -- 90
2019-10-20 17:00:00 8.5 4 Sudoeste 10 Oeste 0.7 -- -- 89
2019-10-20 16:00:00 8 5 Sudoeste 11 Sudoeste 1 -- -- 91
2019-10-20 15:00:00 7.6 4 Sudoeste 10 Sudoeste 0.7 -- -- 88
2019-10-20 14:00:00 7.7 4 Sudoeste 8 Sudoeste 1.2 -- -- 89
2019-10-20 13:00:00 7.2 3 Oeste 8 Sudoeste 2.7 -- -- 90
2019-10-20 12:00:00 6.7 0 Calma 8 Sudoeste 1.6 -- -- 90
2019-10-20 11:00:00 7.3 0 Calma 7 Sudeste 1.2 -- -- 92
2019-10-20 10:00:00 7.2 0 Calma 13 Norte 0.5 -- -- 91
2019-10-20 09:00:00 7.1 3 Nordeste 15 Nordeste 0.1 -- -- 91
2019-10-20 08:00:00 7.6 2 Sudeste 8 Sudeste 0.5 -- -- 92
2019-10-20 07:00:00 8.1 4 Nordeste 10 Nordeste 2.3 -- -- 92
2019-10-20 06:00:00 8.9 3 Nordeste 9 Nordeste 2.7 -- -- 94
2019-10-20 05:00:00 9.1 0 Calma 5 Este 0.2 -- -- 94
2019-10-20 04:00:00 9.3 0 Calma 6 Oeste 0.2 -- -- 94
2019-10-20 03:00:00 9.4 3 Oeste 9 Sudoeste 1.1 -- -- 94
2019-10-20 02:00:00 9.5 0 Calma 7 Sudoeste 2.2 -- -- 94
2019-10-20 01:00:00 9.5 0 Calma 7 Este 2.2 -- -- 94
2019-10-20 00:00:00 9.7 0 Calma 6 Sudoeste 3.2 -- -- 94
2019-10-19 23:00:00 9.8 0 Calma 14 Nordeste 1 -- -- 93
2019-10-19 22:00:00 10.2 6 Nordeste 21 Norte 0.1 -- -- 92
2019-10-19 21:00:00 12.3 9 Sudoeste 50 Sudoeste 0.9 -- -- 85
2019-10-19 20:00:00 12 3 Sur 15 Sudoeste 0.5 -- -- 89
2019-10-19 19:00:00 12 7 Sudoeste 19 Sudoeste 0.5 -- -- 87
2019-10-19 18:00:00 11.9 5 Sudoeste 23 Sudoeste 0.4 -- -- 87
2019-10-19 17:00:00 12.4 7 Sudoeste 22 Sudoeste 0.1 -- -- 86
2019-10-19 16:00:00 12.3 10 Sudoeste 28 Sudoeste 0.4 -- -- 83
2019-10-19 15:00:00 11.9 13 Sudoeste 24 Sudoeste 1.3 -- -- 87
2019-10-19 14:00:00 12.1 8 Sudoeste 24 Sudoeste 0.5 -- -- 90
2019-10-19 13:00:00 12.1 10 Sudoeste 28 Sudoeste 0 -- -- 79
2019-10-19 12:00:00 11.6 8 Sudoeste 26 Sur 0.1 -- -- 81
2019-10-19 11:00:00 11.8 9 Sudoeste 26 Sudoeste 0 -- -- 76
2019-10-19 10:00:00 11.9 14 Sudoeste 31 Sudoeste 0 -- -- 75
2019-10-19 09:00:00 11.4 11 Sudoeste 30 Sudoeste 0 -- -- 77
2019-10-19 08:00:00 11.8 14 Sudoeste 28 Sudoeste 0 -- -- 76
2019-10-19 07:00:00 11.6 13 Sudoeste 24 Sudoeste 0 -- -- 74
2019-10-19 06:00:00 11.5 8 Sudoeste 15 Sudoeste 0 -- -- 78
2019-10-19 05:00:00 11.6 12 Sudoeste 24 Sudoeste 0 -- -- 77
2019-10-19 04:00:00 12.1 6 Sudoeste 17 Sudoeste 0 -- -- 73
2019-10-19 03:00:00 12 13 Sudoeste 27 Sudoeste 0 -- -- 73
2019-10-19 02:00:00 12.3 9 Sudoeste 19 Sudoeste 0 -- -- 70
2019-10-19 01:00:00 11.8 5 Sudoeste 16 Sudoeste 0 -- -- 71
2019-10-19 00:00:00 12.1 9 Sudoeste 18 Sudoeste 0 -- -- 67
2019-10-18 23:00:00 12.7 9 Sudoeste 25 Sudoeste 0 -- -- 64
2019-10-18 22:00:00 13 8 Sudoeste 23 Sudoeste 0 -- -- 63
2019-10-18 21:00:00 13.4 12 Sudoeste 22 Sudoeste 0 -- -- 59
2019-10-18 20:00:00 13 3 Sudoeste 14 Sudoeste 0 -- -- 58
2019-10-18 19:00:00 14.2 7 Sudoeste 21 Sudoeste 0 -- -- 52
2019-10-18 18:00:00 14.9 13 Sudoeste 28 Sudoeste 0 -- -- 48
2019-10-18 17:00:00 15.6 14 Sudoeste 30 Sudoeste 0 -- -- 44
2019-10-18 16:00:00 16.1 12 Sudoeste 30 Sudoeste 0 -- -- 44
2019-10-18 15:00:00 16.3 10 Sudoeste 26 Sudoeste 0 -- -- 44
2019-10-18 14:00:00 16.8 16 Sudoeste 31 Sudoeste 0 -- -- 42
2019-10-18 13:00:00 15.9 10 Sudoeste 26 Sudoeste 0 -- -- 47
2019-10-18 12:00:00 15.5 0 Calma 13 Nordeste 0 -- -- 60
2019-10-18 11:00:00 12.5 3 Este 10 Este 0 -- -- 78
2019-10-18 10:00:00 11.5 3 Nordeste 11 Este 0 -- -- 88
2019-10-18 09:00:00 11.6 0 Calma 7 Nordeste 0 -- -- 92
2019-10-18 08:00:00 11.6 0 Calma 10 Nordeste 0 -- -- 93
2019-10-18 07:00:00 11.5 3 Nordeste 11 Nordeste 0 -- -- 94
2019-10-18 06:00:00 11.3 0 Calma 5 Sudoeste 0 -- -- 93
2019-10-18 05:00:00 11.8 0 Calma 6 Nordeste 0 -- -- 93
2019-10-18 04:00:00 12.6 0 Calma 4 Nordeste 0 -- -- 93
2019-10-18 03:00:00 13.7 0 Calma 12 Sudoeste 0.1 -- -- 91
2019-10-18 02:00:00 14 8 Sudoeste 21 Sudoeste 0 -- -- 85
2019-10-18 01:00:00 13.9 9 Sudoeste 16 Sudoeste 0 -- -- 83
2019-10-18 00:00:00 13.3 4 Sudoeste 17 Sudoeste 0 -- -- 79
2019-10-17 23:00:00 14.4 9 Sudoeste 19 Sudoeste 0 -- -- 74
2019-10-17 22:00:00 14.8 8 Sudoeste 19 Sudoeste 0 -- -- 69
2019-10-17 21:00:00 15.7 10 Sudoeste 22 Sur 0 -- -- 61
2019-10-17 20:00:00 15.6 9 Sudoeste 25 Sudoeste 0 -- -- 53
2019-10-17 19:00:00 17.4 11 Sudoeste 29 Sudoeste 0 -- -- 46
2019-10-17 18:00:00 19.4 12 Sudoeste 37 Sudoeste 0 -- -- 42
2019-10-17 17:00:00 20.3 12 Sudoeste 31 Sudoeste 0 -- -- 40
2019-10-17 16:00:00 20.2 12 Sudoeste 40 Sudoeste 0 -- -- 46
2019-10-17 15:00:00 19.1 19 Sudoeste 39 Sudoeste 0 -- -- 47
2019-10-17 14:00:00 18.3 18 Sudoeste 38 Sudoeste 0 -- -- 58
2019-10-17 13:00:00 17 13 Sudoeste 30 Sudoeste 0 -- -- 65
2019-10-17 12:00:00 15.4 12 Sudoeste 26 Sudoeste 0 -- -- 74
2019-10-17 11:00:00 14.1 9 Sudoeste 21 Sudoeste 0 -- -- 82
2019-10-17 10:00:00 12.8 8 Sudoeste 20 Sudoeste 0 -- -- 84
2019-10-17 09:00:00 12.4 14 Sudoeste 34 Sudoeste 0 -- -- 84
2019-10-17 08:00:00 11.8 14 Sudoeste 23 Sudoeste 0 -- -- 88
2019-10-17 07:00:00 11.6 9 Sudoeste 28 Sudoeste 0 -- -- 91
2019-10-17 06:00:00 11.7 12 Sudoeste 20 Oeste 0.4 -- -- 88
2019-10-17 05:00:00 11.9 8 Sudoeste 20 Oeste 0.6 -- -- 88
2019-10-17 04:00:00 12.4 5 Oeste 20 Oeste 0.3 -- -- 85
2019-10-17 03:00:00 12.3 10 Sudoeste 23 Sudoeste 0.3 -- -- 87
2019-10-17 02:00:00 12.2 11 Sudoeste 32 Sudoeste 0.6 -- -- 90
2019-10-17 01:00:00 13.1 18 Sudoeste 38 Sudoeste 0 -- -- 79
2019-10-17 00:00:00 13.3 16 Sudoeste 27 Sudoeste 0 -- -- 76
2019-10-16 23:00:00 13.3 15 Sudoeste 32 Sudoeste 0 -- -- 75
2019-10-16 22:00:00 14 14 Sudoeste 27 Sudoeste 0 -- -- 67
2019-10-16 21:00:00 13.7 9 Sudoeste 18 Sudoeste 0 -- -- 68
2019-10-16 20:00:00 14.1 5 Sudoeste 18 Sudoeste 0 -- -- 65
2019-10-16 19:00:00 14.6 11 Sudoeste 28 Sudoeste 0 -- -- 62
2019-10-16 18:00:00 14.8 15 Sudoeste 35 Sudoeste 0 -- -- 61
2019-10-16 17:00:00 14.8 16 Sudoeste 36 Sudoeste 0 -- -- 61
2019-10-16 16:00:00 14.1 14 Sudoeste 35 Sudoeste 0 -- -- 64
2019-10-16 15:00:00 13.9 18 Sudoeste 36 Sudoeste 0 -- -- 65
2019-10-16 14:00:00 13.2 18 Sudoeste 42 Sudoeste 0 -- -- 67
2019-10-16 13:00:00 12.9 17 Sudoeste 38 Sudoeste 0 -- -- 67
2019-10-16 12:00:00 11.7 18 Sudoeste 32 Sudoeste 0 -- -- 74
2019-10-16 11:00:00 11.6 15 Sudoeste 37 Sudoeste 0 -- -- 73
2019-10-16 10:00:00 11.6 18 Sudoeste 37 Sudoeste 0 -- -- 73
2019-10-16 09:00:00 10.7 6 Sudoeste 21 Sudoeste 0 -- -- 76
2019-10-16 08:00:00 10.8 11 Sudoeste 31 Sudoeste 0 -- -- 71
2019-10-16 07:00:00 10.9 16 Sudoeste 35 Sudoeste 0 -- -- 70
2019-10-16 06:00:00 10.8 18 Sudoeste 37 Sudoeste 0 -- -- 70
2019-10-16 05:00:00 11.2 18 Sudoeste 34 Sudoeste 0 -- -- 69
2019-10-16 04:00:00 11.2 16 Sudoeste 35 Sudoeste 0 -- -- 70
2019-10-16 03:00:00 11.5 13 Sudoeste 30 Sudoeste 0 -- -- 69
2019-10-16 02:00:00 11.6 13 Sudoeste 26 Sudoeste 0 -- -- 68
2019-10-16 01:00:00 11.3 13 Sudoeste 24 Oeste 0 -- -- 68
2019-10-16 00:00:00 11 13 Sudoeste 24 Sudoeste 0 -- -- 67
2019-10-15 23:00:00 11.6 15 Sudoeste 42 Sudoeste 0 -- -- 63
2019-10-15 22:00:00 11.7 18 Sudoeste 34 Sudoeste 0 -- -- 61
2019-10-15 21:00:00 12.4 14 Sudoeste 29 Sudoeste 0 -- -- 56
2019-10-15 20:00:00 12.6 17 Sudoeste 30 Sudoeste 0 -- -- 52
2019-10-15 19:00:00 12.9 12 Sudoeste 30 Sudoeste 0 -- -- 47
2019-10-15 18:00:00 13.3 13 Sudoeste 42 Sudoeste 0 -- -- 47
2019-10-15 17:00:00 13.9 18 Sudoeste 34 Sudoeste 0 -- -- 43
2019-10-15 16:00:00 14.6 18 Sudoeste 34 Sudoeste 0 -- -- 41
2019-10-15 15:00:00 14.2 15 Sudoeste 33 Sudoeste 0 -- -- 41
2019-10-15 14:00:00 13.3 16 Sudoeste 29 Sudoeste 0 -- -- 44
2019-10-15 13:00:00 12.4 16 Sudoeste 34 Sudoeste 0 -- -- 49
2019-10-15 12:00:00 11.2 15 Sudoeste 30 Sudoeste 0 -- -- 54
2019-10-15 11:00:00 9.9 10 Sudoeste 19 Sudoeste 0 -- -- 64
2019-10-15 10:00:00 5.4 0 Calma 4 Sur 0 -- -- 95
2019-10-15 09:00:00 2.3 0 Calma 5 Sudoeste 0 -- -- 95
2019-10-15 08:00:00 1.6 0 Calma 5 Sudoeste 0 -- -- 95
2019-10-15 07:00:00 1.6 0 Calma 6 Oeste 0 -- -- 94
2019-10-15 06:00:00 2 0 Calma 4 Sudoeste 0 -- -- 94
2019-10-15 05:00:00 2.6 0 Calma 5 Oeste 0 -- -- 93
2019-10-15 04:00:00 3.5 0 Calma 4 Sudoeste 0 -- -- 92
2019-10-15 03:00:00 5 0 Calma 6 Sudoeste 0 -- -- 89
2019-10-15 02:00:00 6.2 5 Sudoeste 14 Sudoeste 0 -- -- 84
2019-10-15 01:00:00 6.9 3 Sudoeste 17 Sudoeste 0 -- -- 81
2019-10-15 00:00:00 8.1 4 Oeste 17 Oeste 0 -- -- 79
2019-10-14 23:00:00 9.1 8 Sudoeste 24 Oeste 0 -- -- 74
2019-10-14 22:00:00 9.4 13 Sudoeste 26 Sudoeste 0 -- -- 74
2019-10-14 21:00:00 9.6 17 Sudoeste 36 Sudoeste 0 -- -- 71
2019-10-14 20:00:00 10.4 7 Sudoeste 32 Sudoeste 0 -- -- 75
2019-10-14 19:00:00 11.9 15 Sudoeste 41 Sudoeste 0 -- -- 71
2019-10-14 18:00:00 12.4 18 Sudoeste 50 Sudoeste 0 -- -- 64
2019-10-14 17:00:00 12.1 18 Sudoeste 38 Sudoeste 0.1 -- -- 74
2019-10-14 16:00:00 12 17 Sudoeste 45 Sudoeste 0.2 -- -- 77
2019-10-14 15:00:00 15.6 21 Sudoeste 45 Sudoeste 0 -- -- 47
2019-10-14 14:00:00 16 18 Sudoeste 50 Sudoeste 0 -- -- 51
2019-10-14 13:00:00 15 19 Sudoeste 45 Sudoeste 0 -- -- 61
2019-10-14 12:00:00 14.6 25 Sudoeste 59 Sudoeste 0.3 -- -- 70
2019-10-14 11:00:00 15.1 17 Sudoeste 38 Sudoeste 0.2 -- -- 73
2019-10-14 10:00:00 13.9 12 Sudoeste 31 Sudoeste 0.9 -- -- 83
2019-10-14 09:00:00 11.9 0 Calma 5 Nordeste 0 -- -- 79
2019-10-14 08:00:00 11.8 0 Calma 10 Este 0 -- -- 77
2019-10-14 07:00:00 14.4 0 Calma 20 Sudoeste 0 -- -- 58
2019-10-14 06:00:00 16 8 Sudoeste 26 Sudoeste 0 -- -- 51
2019-10-14 05:00:00 16.6 14 Sudoeste 26 Sudoeste 0 -- -- 50
2019-10-14 04:00:00 16.1 13 Sudoeste 23 Sudoeste 0 -- -- 49
2019-10-14 03:00:00 15.3 12 Sudoeste 22 Sudoeste 0 -- -- 49
2019-10-14 02:00:00 15.5 14 Sudoeste 33 Sudoeste 0 -- -- 48
2019-10-14 01:00:00 16.4 16 Sudoeste 32 Sudoeste 0 -- -- 47
2019-10-14 00:00:00 16.3 15 Sudoeste 26 Sudoeste 0 -- -- 45